sensor_id;sensor_type;location;lat;lon;timestamp;P1;durP1;ratioP1;P2;durP2;ratioP2
8407;SDS011;4241;48.452;9.216;2023-05-29T00:00:41;455.30;;;157.33;;
8407;SDS011;4241;48.452;9.216;2023-05-29T00:03:09;459.63;;;162.70;;
8407;SDS011;4241;48.452;9.216;2023-05-29T00:05:37;458.27;;;160.30;;
8407;SDS011;4241;48.452;9.216;2023-05-29T00:08:04;454.50;;;155.53;;
8407;SDS011;4241;48.452;9.216;2023-05-29T00:10:31;454.03;;;154.03;;
8407;SDS011;4241;48.452;9.216;2023-05-29T00:12:58;457.93;;;160.63;;
8407;SDS011;4241;48.452;9.216;2023-05-29T00:15:26;455.43;;;156.00;;
8407;SDS011;4241;48.452;9.216;2023-05-29T00:17:53;455.40;;;155.70;;
8407;SDS011;4241;48.452;9.216;2023-05-29T00:20:20;456.63;;;156.60;;
8407;SDS011;4241;48.452;9.216;2023-05-29T00:22:48;453.30;;;152.83;;
8407;SDS011;4241;48.452;9.216;2023-05-29T00:25:15;452.70;;;152.27;;
8407;SDS011;4241;48.452;9.216;2023-05-29T00:27:42;451.07;;;151.53;;
8407;SDS011;4241;48.452;9.216;2023-05-29T00:30:09;453.10;;;152.03;;
8407;SDS011;4241;48.452;9.216;2023-05-29T00:32:36;452.40;;;150.30;;
8407;SDS011;4241;48.452;9.216;2023-05-29T00:35:03;452.50;;;151.30;;
8407;SDS011;4241;48.452;9.216;2023-05-29T00:37:30;452.77;;;151.90;;
8407;SDS011;4241;48.452;9.216;2023-05-29T00:39:59;452.27;;;151.53;;
8407;SDS011;4241;48.452;9.216;2023-05-29T00:42:25;452.60;;;151.47;;
8407;SDS011;4241;48.452;9.216;2023-05-29T00:44:52;452.33;;;150.93;;
8407;SDS011;4241;48.452;9.216;2023-05-29T00:47:19;452.17;;;151.50;;
8407;SDS011;4241;48.452;9.216;2023-05-29T00:49:46;452.40;;;152.07;;
8407;SDS011;4241;48.452;9.216;2023-05-29T00:52:16;453.90;;;152.97;;
8407;SDS011;4241;48.452;9.216;2023-05-29T00:54:44;451.53;;;150.10;;
8407;SDS011;4241;48.452;9.216;2023-05-29T00:57:13;455.80;;;155.10;;
8407;SDS011;4241;48.452;9.216;2023-05-29T00:59:42;450.83;;;147.67;;
8407;SDS011;4241;48.452;9.216;2023-05-29T01:02:11;456.67;;;155.57;;
8407;SDS011;4241;48.452;9.216;2023-05-29T01:04:38;451.30;;;150.23;;
8407;SDS011;4241;48.452;9.216;2023-05-29T01:07:05;452.20;;;150.70;;
8407;SDS011;4241;48.452;9.216;2023-05-29T01:09:34;453.43;;;152.10;;
8407;SDS011;4241;48.452;9.216;2023-05-29T01:12:03;452.87;;;151.97;;
8407;SDS011;4241;48.452;9.216;2023-05-29T01:14:44;452.10;;;150.00;;
8407;SDS011;4241;48.452;9.216;2023-05-29T01:17:18;450.23;;;148.87;;
8407;SDS011;4241;48.452;9.216;2023-05-29T01:20:03;451.23;;;150.63;;
8407;SDS011;4241;48.452;9.216;2023-05-29T01:22:46;448.67;;;147.00;;
8407;SDS011;4241;48.452;9.216;2023-05-29T01:25:34;450.23;;;147.83;;
8407;SDS011;4241;48.452;9.216;2023-05-29T01:28:15;448.93;;;146.23;;
8407;SDS011;4241;48.452;9.216;2023-05-29T01:30:46;450.07;;;147.67;;
8407;SDS011;4241;48.452;9.216;2023-05-29T01:33:13;450.23;;;148.40;;
8407;SDS011;4241;48.452;9.216;2023-05-29T01:35:41;451.27;;;149.20;;
8407;SDS011;4241;48.452;9.216;2023-05-29T01:38:08;450.83;;;148.17;;
8407;SDS011;4241;48.452;9.216;2023-05-29T01:40:34;448.83;;;146.10;;
8407;SDS011;4241;48.452;9.216;2023-05-29T01:43:01;449.10;;;145.63;;
8407;SDS011;4241;48.452;9.216;2023-05-29T01:45:30;455.10;;;153.00;;
8407;SDS011;4241;48.452;9.216;2023-05-29T01:47:57;449.63;;;147.80;;
8407;SDS011;4241;48.452;9.216;2023-05-29T01:50:24;450.53;;;148.13;;
8407;SDS011;4241;48.452;9.216;2023-05-29T01:52:52;450.33;;;148.30;;
8407;SDS011;4241;48.452;9.216;2023-05-29T01:55:18;452.00;;;149.40;;
8407;SDS011;4241;48.452;9.216;2023-05-29T01:57:45;448.50;;;146.00;;
8407;SDS011;4241;48.452;9.216;2023-05-29T02:00:13;448.90;;;146.03;;
8407;SDS011;4241;48.452;9.216;2023-05-29T02:02:45;447.47;;;144.97;;
8407;SDS011;4241;48.452;9.216;2023-05-29T02:05:12;449.30;;;146.47;;
8407;SDS011;4241;48.452;9.216;2023-05-29T02:07:38;448.60;;;145.13;;
8407;SDS011;4241;48.452;9.216;2023-05-29T02:10:05;448.23;;;144.63;;
8407;SDS011;4241;48.452;9.216;2023-05-29T02:12:32;450.60;;;146.30;;
8407;SDS011;4241;48.452;9.216;2023-05-29T02:14:59;447.60;;;144.50;;
8407;SDS011;4241;48.452;9.216;2023-05-29T02:17:26;449.83;;;145.47;;
8407;SDS011;4241;48.452;9.216;2023-05-29T02:19:54;450.57;;;148.23;;
8407;SDS011;4241;48.452;9.216;2023-05-29T02:22:21;448.27;;;144.80;;
8407;SDS011;4241;48.452;9.216;2023-05-29T02:24:48;446.63;;;142.30;;
8407;SDS011;4241;48.452;9.216;2023-05-29T02:27:15;447.20;;;143.70;;
8407;SDS011;4241;48.452;9.216;2023-05-29T02:29:42;445.43;;;141.83;;
8407;SDS011;4241;48.452;9.216;2023-05-29T02:32:08;447.10;;;142.67;;
8407;SDS011;4241;48.452;9.216;2023-05-29T02:34:35;446.90;;;142.67;;
8407;SDS011;4241;48.452;9.216;2023-05-29T02:37:03;450.30;;;144.93;;
8407;SDS011;4241;48.452;9.216;2023-05-29T02:39:30;447.77;;;143.57;;
8407;SDS011;4241;48.452;9.216;2023-05-29T02:41:57;446.53;;;142.67;;
8407;SDS011;4241;48.452;9.216;2023-05-29T02:44:24;447.30;;;143.57;;
8407;SDS011;4241;48.452;9.216;2023-05-29T02:46:51;447.30;;;143.30;;
8407;SDS011;4241;48.452;9.216;2023-05-29T02:49:17;445.40;;;141.57;;
8407;SDS011;4241;48.452;9.216;2023-05-29T02:51:44;444.87;;;141.27;;
8407;SDS011;4241;48.452;9.216;2023-05-29T02:54:12;447.00;;;142.90;;
8407;SDS011;4241;48.452;9.216;2023-05-29T02:56:39;444.67;;;140.23;;
8407;SDS011;4241;48.452;9.216;2023-05-29T02:59:06;446.43;;;141.30;;
8407;SDS011;4241;48.452;9.216;2023-05-29T03:01:32;446.17;;;141.57;;
8407;SDS011;4241;48.452;9.216;2023-05-29T03:03:59;445.50;;;140.90;;
8407;SDS011;4241;48.452;9.216;2023-05-29T03:06:26;446.10;;;142.07;;
8407;SDS011;4241;48.452;9.216;2023-05-29T03:08:53;444.77;;;139.20;;
8407;SDS011;4241;48.452;9.216;2023-05-29T03:11:21;442.77;;;137.90;;
8407;SDS011;4241;48.452;9.216;2023-05-29T03:13:49;443.77;;;139.30;;
8407;SDS011;4241;48.452;9.216;2023-05-29T03:16:16;446.40;;;141.13;;
8407;SDS011;4241;48.452;9.216;2023-05-29T03:18:43;442.37;;;138.13;;
8407;SDS011;4241;48.452;9.216;2023-05-29T03:21:10;447.20;;;142.70;;
8407;SDS011;4241;48.452;9.216;2023-05-29T03:23:36;444.00;;;139.50;;
8407;SDS011;4241;48.452;9.216;2023-05-29T03:26:03;444.70;;;140.17;;
8407;SDS011;4241;48.452;9.216;2023-05-29T03:28:32;444.13;;;139.10;;
8407;SDS011;4241;48.452;9.216;2023-05-29T03:30:59;443.77;;;139.60;;
8407;SDS011;4241;48.452;9.216;2023-05-29T03:33:26;445.37;;;141.33;;
8407;SDS011;4241;48.452;9.216;2023-05-29T03:35:53;444.50;;;140.70;;
8407;SDS011;4241;48.452;9.216;2023-05-29T03:38:20;442.73;;;138.03;;
8407;SDS011;4241;48.452;9.216;2023-05-29T03:40:47;444.07;;;139.20;;
8407;SDS011;4241;48.452;9.216;2023-05-29T03:43:14;444.20;;;139.57;;
8407;SDS011;4241;48.452;9.216;2023-05-29T03:45:42;446.43;;;141.97;;
8407;SDS011;4241;48.452;9.216;2023-05-29T03:48:09;444.50;;;139.40;;
8407;SDS011;4241;48.452;9.216;2023-05-29T03:50:35;445.53;;;141.30;;
8407;SDS011;4241;48.452;9.216;2023-05-29T03:53:02;443.10;;;138.77;;
8407;SDS011;4241;48.452;9.216;2023-05-29T03:55:29;449.97;;;145.67;;
8407;SDS011;4241;48.452;9.216;2023-05-29T03:57:57;444.97;;;139.10;;
8407;SDS011;4241;48.452;9.216;2023-05-29T04:00:24;442.47;;;137.50;;
8407;SDS011;4241;48.452;9.216;2023-05-29T04:02:52;443.43;;;139.37;;
8407;SDS011;4241;48.452;9.216;2023-05-29T04:05:21;445.20;;;139.80;;
8407;SDS011;4241;48.452;9.216;2023-05-29T04:07:47;441.90;;;136.63;;
8407;SDS011;4241;48.452;9.216;2023-05-29T04:10:14;443.57;;;137.97;;
8407;SDS011;4241;48.452;9.216;2023-05-29T04:12:41;442.27;;;137.87;;
8407;SDS011;4241;48.452;9.216;2023-05-29T04:15:08;443.80;;;138.73;;
8407;SDS011;4241;48.452;9.216;2023-05-29T04:17:35;443.30;;;137.93;;
8407;SDS011;4241;48.452;9.216;2023-05-29T04:20:04;453.70;;;147.97;;
8407;SDS011;4241;48.452;9.216;2023-05-29T04:22:33;443.43;;;139.50;;
8407;SDS011;4241;48.452;9.216;2023-05-29T04:25:01;444.10;;;138.03;;
8407;SDS011;4241;48.452;9.216;2023-05-29T04:27:28;443.40;;;139.40;;
8407;SDS011;4241;48.452;9.216;2023-05-29T04:29:56;444.27;;;139.63;;
8407;SDS011;4241;48.452;9.216;2023-05-29T04:32:23;445.43;;;141.50;;
8407;SDS011;4241;48.452;9.216;2023-05-29T04:34:51;445.57;;;141.40;;
8407;SDS011;4241;48.452;9.216;2023-05-29T04:37:19;448.80;;;143.33;;
8407;SDS011;4241;48.452;9.216;2023-05-29T04:39:54;445.47;;;141.20;;
8407;SDS011;4241;48.452;9.216;2023-05-29T04:42:22;443.90;;;138.37;;
8407;SDS011;4241;48.452;9.216;2023-05-29T04:44:50;442.67;;;139.20;;
8407;SDS011;4241;48.452;9.216;2023-05-29T04:47:17;447.30;;;143.73;;
8407;SDS011;4241;48.452;9.216;2023-05-29T04:49:44;445.93;;;141.67;;
8407;SDS011;4241;48.452;9.216;2023-05-29T04:52:13;443.73;;;139.50;;
8407;SDS011;4241;48.452;9.216;2023-05-29T04:54:42;443.37;;;138.90;;
8407;SDS011;4241;48.452;9.216;2023-05-29T04:57:09;444.67;;;141.53;;
8407;SDS011;4241;48.452;9.216;2023-05-29T04:59:36;447.63;;;144.63;;
8407;SDS011;4241;48.452;9.216;2023-05-29T05:02:04;446.03;;;141.87;;
8407;SDS011;4241;48.452;9.216;2023-05-29T05:04:31;446.67;;;143.37;;
8407;SDS011;4241;48.452;9.216;2023-05-29T05:06:58;448.17;;;145.03;;
8407;SDS011;4241;48.452;9.216;2023-05-29T05:09:25;447.10;;;143.63;;
8407;SDS011;4241;48.452;9.216;2023-05-29T05:11:53;445.90;;;142.50;;
8407;SDS011;4241;48.452;9.216;2023-05-29T05:14:21;447.90;;;144.60;;
8407;SDS011;4241;48.452;9.216;2023-05-29T05:16:48;448.30;;;146.63;;
8407;SDS011;4241;48.452;9.216;2023-05-29T05:19:16;447.53;;;145.37;;
8407;SDS011;4241;48.452;9.216;2023-05-29T05:21:43;448.27;;;144.70;;
8407;SDS011;4241;48.452;9.216;2023-05-29T05:24:09;450.13;;;147.67;;
8407;SDS011;4241;48.452;9.216;2023-05-29T05:26:36;447.37;;;144.90;;
8407;SDS011;4241;48.452;9.216;2023-05-29T05:29:04;445.23;;;142.37;;
8407;SDS011;4241;48.452;9.216;2023-05-29T05:31:31;447.97;;;144.33;;
8407;SDS011;4241;48.452;9.216;2023-05-29T05:33:58;446.97;;;144.83;;
8407;SDS011;4241;48.452;9.216;2023-05-29T05:36:25;446.70;;;144.50;;
8407;SDS011;4241;48.452;9.216;2023-05-29T05:38:52;448.47;;;147.17;;
8407;SDS011;4241;48.452;9.216;2023-05-29T05:41:18;450.10;;;148.17;;
8407;SDS011;4241;48.452;9.216;2023-05-29T05:43:46;448.97;;;146.70;;
8407;SDS011;4241;48.452;9.216;2023-05-29T05:46:14;451.23;;;149.00;;
8407;SDS011;4241;48.452;9.216;2023-05-29T05:48:42;450.67;;;149.80;;
8407;SDS011;4241;48.452;9.216;2023-05-29T05:51:09;448.27;;;146.40;;
8407;SDS011;4241;48.452;9.216;2023-05-29T05:53:37;452.20;;;151.17;;
8407;SDS011;4241;48.452;9.216;2023-05-29T05:56:03;452.30;;;150.77;;
8407;SDS011;4241;48.452;9.216;2023-05-29T05:58:30;452.97;;;152.70;;
8407;SDS011;4241;48.452;9.216;2023-05-29T06:00:57;453.80;;;154.67;;
8407;SDS011;4241;48.452;9.216;2023-05-29T06:03:26;454.07;;;154.57;;
8407;SDS011;4241;48.452;9.216;2023-05-29T06:05:53;456.90;;;158.80;;
8407;SDS011;4241;48.452;9.216;2023-05-29T06:08:20;455.50;;;158.27;;
8407;SDS011;4241;48.452;9.216;2023-05-29T06:10:47;456.37;;;157.67;;
8407;SDS011;4241;48.452;9.216;2023-05-29T06:13:14;455.53;;;157.63;;
8407;SDS011;4241;48.452;9.216;2023-05-29T06:15:42;457.87;;;163.20;;
8407;SDS011;4241;48.452;9.216;2023-05-29T06:18:09;459.10;;;166.27;;
8407;SDS011;4241;48.452;9.216;2023-05-29T06:20:37;460.80;;;167.90;;
8407;SDS011;4241;48.452;9.216;2023-05-29T06:23:09;459.37;;;167.40;;
8407;SDS011;4241;48.452;9.216;2023-05-29T06:25:38;465.17;;;172.93;;
8407;SDS011;4241;48.452;9.216;2023-05-29T06:28:06;459.90;;;168.83;;
8407;SDS011;4241;48.452;9.216;2023-05-29T06:30:40;463.00;;;172.37;;
8407;SDS011;4241;48.452;9.216;2023-05-29T06:46:58;463.17;;;180.17;;
8407;SDS011;4241;48.452;9.216;2023-05-29T06:49:25;464.10;;;184.00;;
8407;SDS011;4241;48.452;9.216;2023-05-29T06:51:52;468.23;;;187.67;;
8407;SDS011;4241;48.452;9.216;2023-05-29T06:54:18;466.60;;;187.87;;
8407;SDS011;4241;48.452;9.216;2023-05-29T06:56:45;466.90;;;190.10;;
8407;SDS011;4241;48.452;9.216;2023-05-29T06:59:12;467.13;;;192.77;;
8407;SDS011;4241;48.452;9.216;2023-05-29T07:01:39;468.00;;;194.87;;
8407;SDS011;4241;48.452;9.216;2023-05-29T07:04:07;469.23;;;194.57;;
8407;SDS011;4241;48.452;9.216;2023-05-29T07:06:34;470.87;;;200.63;;
8407;SDS011;4241;48.452;9.216;2023-05-29T07:09:01;470.57;;;201.07;;
8407;SDS011;4241;48.452;9.216;2023-05-29T07:11:27;471.53;;;204.03;;
8407;SDS011;4241;48.452;9.216;2023-05-29T07:13:54;471.60;;;205.30;;
8407;SDS011;4241;48.452;9.216;2023-05-29T07:16:21;473.47;;;209.40;;
8407;SDS011;4241;48.452;9.216;2023-05-29T07:18:48;474.53;;;212.20;;
8407;SDS011;4241;48.452;9.216;2023-05-29T07:21:16;473.83;;;212.53;;
8407;SDS011;4241;48.452;9.216;2023-05-29T07:23:43;475.40;;;213.63;;
8407;SDS011;4241;48.452;9.216;2023-05-29T07:26:10;472.77;;;211.53;;
8407;SDS011;4241;48.452;9.216;2023-05-29T07:28:37;474.00;;;214.77;;
8407;SDS011;4241;48.452;9.216;2023-05-29T07:31:04;474.43;;;214.20;;
8407;SDS011;4241;48.452;9.216;2023-05-29T07:33:31;473.73;;;214.67;;
8407;SDS011;4241;48.452;9.216;2023-05-29T07:35:58;473.77;;;215.97;;
8407;SDS011;4241;48.452;9.216;2023-05-29T07:38:26;473.57;;;216.60;;
8407;SDS011;4241;48.452;9.216;2023-05-29T07:40:53;474.87;;;219.80;;
8407;SDS011;4241;48.452;9.216;2023-05-29T07:43:19;475.73;;;222.03;;
8407;SDS011;4241;48.452;9.216;2023-05-29T07:45:46;477.37;;;224.90;;
8407;SDS011;4241;48.452;9.216;2023-05-29T07:48:13;477.57;;;228.67;;
8407;SDS011;4241;48.452;9.216;2023-05-29T07:50:40;479.03;;;232.40;;
8407;SDS011;4241;48.452;9.216;2023-05-29T07:53:07;477.87;;;232.20;;
8407;SDS011;4241;48.452;9.216;2023-05-29T07:55:35;484.73;;;238.63;;
8407;SDS011;4241;48.452;9.216;2023-05-29T07:58:02;478.50;;;234.30;;
8407;SDS011;4241;48.452;9.216;2023-05-29T08:00:28;482.70;;;242.87;;
8407;SDS011;4241;48.452;9.216;2023-05-29T08:02:55;480.07;;;238.77;;
8407;SDS011;4241;48.452;9.216;2023-05-29T08:05:23;485.90;;;248.37;;
8407;SDS011;4241;48.452;9.216;2023-05-29T08:07:50;480.73;;;239.83;;
8407;SDS011;4241;48.452;9.216;2023-05-29T08:10:17;480.30;;;238.60;;
8407;SDS011;4241;48.452;9.216;2023-05-29T08:12:45;480.70;;;242.13;;
8407;SDS011;4241;48.452;9.216;2023-05-29T08:15:12;496.63;;;259.87;;
8407;SDS011;4241;48.452;9.216;2023-05-29T08:17:39;484.33;;;251.97;;
8407;SDS011;4241;48.452;9.216;2023-05-29T08:20:06;483.87;;;251.97;;
8407;SDS011;4241;48.452;9.216;2023-05-29T08:22:35;482.47;;;249.13;;
8407;SDS011;4241;48.452;9.216;2023-05-29T08:25:02;484.10;;;250.80;;
8407;SDS011;4241;48.452;9.216;2023-05-29T08:27:29;483.13;;;256.40;;
8407;SDS011;4241;48.452;9.216;2023-05-29T08:29:57;483.03;;;255.90;;
8407;SDS011;4241;48.452;9.216;2023-05-29T08:32:24;484.13;;;258.43;;
8407;SDS011;4241;48.452;9.216;2023-05-29T08:34:50;487.10;;;265.80;;
8407;SDS011;4241;48.452;9.216;2023-05-29T08:37:17;487.37;;;268.90;;
8407;SDS011;4241;48.452;9.216;2023-05-29T08:39:44;486.73;;;272.83;;
8407;SDS011;4241;48.452;9.216;2023-05-29T08:42:12;489.80;;;282.40;;
8407;SDS011;4241;48.452;9.216;2023-05-29T08:44:44;489.40;;;280.70;;
8407;SDS011;4241;48.452;9.216;2023-05-29T08:47:15;490.07;;;287.43;;
8407;SDS011;4241;48.452;9.216;2023-05-29T08:49:45;490.30;;;287.60;;
8407;SDS011;4241;48.452;9.216;2023-05-29T08:52:19;492.20;;;291.10;;
8407;SDS011;4241;48.452;9.216;2023-05-29T08:54:48;490.63;;;292.63;;
8407;SDS011;4241;48.452;9.216;2023-05-29T08:57:15;492.73;;;295.37;;
8407;SDS011;4241;48.452;9.216;2023-05-29T08:59:43;495.17;;;302.97;;
8407;SDS011;4241;48.452;9.216;2023-05-29T09:02:10;492.57;;;298.13;;
8407;SDS011;4241;48.452;9.216;2023-05-29T09:04:39;492.70;;;301.00;;
8407;SDS011;4241;48.452;9.216;2023-05-29T09:07:10;491.77;;;298.97;;
8407;SDS011;4241;48.452;9.216;2023-05-29T09:09:37;493.80;;;305.20;;
8407;SDS011;4241;48.452;9.216;2023-05-29T09:12:04;494.30;;;306.97;;
8407;SDS011;4241;48.452;9.216;2023-05-29T09:14:33;492.93;;;306.17;;
8407;SDS011;4241;48.452;9.216;2023-05-29T09:17:01;494.03;;;310.97;;
8407;SDS011;4241;48.452;9.216;2023-05-29T09:19:29;494.53;;;309.80;;
8407;SDS011;4241;48.452;9.216;2023-05-29T09:22:01;494.53;;;313.93;;
8407;SDS011;4241;48.452;9.216;2023-05-29T09:24:29;494.67;;;312.40;;
8407;SDS011;4241;48.452;9.216;2023-05-29T09:26:56;494.70;;;311.43;;
8407;SDS011;4241;48.452;9.216;2023-05-29T09:29:24;494.03;;;312.77;;
8407;SDS011;4241;48.452;9.216;2023-05-29T09:31:51;494.17;;;313.23;;
8407;SDS011;4241;48.452;9.216;2023-05-29T09:34:18;495.03;;;315.17;;
8407;SDS011;4241;48.452;9.216;2023-05-29T09:36:48;497.07;;;320.03;;
8407;SDS011;4241;48.452;9.216;2023-05-29T09:39:17;495.40;;;317.20;;
8407;SDS011;4241;48.452;9.216;2023-05-29T09:41:44;495.17;;;319.97;;
8407;SDS011;4241;48.452;9.216;2023-05-29T09:44:13;495.50;;;316.23;;
8407;SDS011;4241;48.452;9.216;2023-05-29T09:46:41;494.67;;;316.60;;
8407;SDS011;4241;48.452;9.216;2023-05-29T09:49:08;494.30;;;314.10;;
8407;SDS011;4241;48.452;9.216;2023-05-29T09:51:37;494.23;;;314.37;;
8407;SDS011;4241;48.452;9.216;2023-05-29T09:54:12;497.83;;;317.60;;
8407;SDS011;4241;48.452;9.216;2023-05-29T09:56:42;493.13;;;312.17;;
8407;SDS011;4241;48.452;9.216;2023-05-29T09:59:09;493.53;;;313.43;;
8407;SDS011;4241;48.452;9.216;2023-05-29T10:01:38;500.80;;;320.00;;
8407;SDS011;4241;48.452;9.216;2023-05-29T10:04:07;494.97;;;314.47;;
8407;SDS011;4241;48.452;9.216;2023-05-29T10:06:35;496.03;;;317.30;;
8407;SDS011;4241;48.452;9.216;2023-05-29T10:09:03;496.83;;;324.83;;
8407;SDS011;4241;48.452;9.216;2023-05-29T10:11:35;494.53;;;321.00;;
8407;SDS011;4241;48.452;9.216;2023-05-29T10:14:05;497.17;;;324.40;;
8407;SDS011;4241;48.452;9.216;2023-05-29T10:16:33;496.23;;;323.00;;
8407;SDS011;4241;48.452;9.216;2023-05-29T10:19:03;495.43;;;325.60;;
8407;SDS011;4241;48.452;9.216;2023-05-29T10:21:32;495.63;;;323.20;;
8407;SDS011;4241;48.452;9.216;2023-05-29T10:24:06;497.67;;;331.63;;
8407;SDS011;4241;48.452;9.216;2023-05-29T10:26:35;495.73;;;325.60;;
8407;SDS011;4241;48.452;9.216;2023-05-29T10:29:08;496.57;;;327.30;;
8407;SDS011;4241;48.452;9.216;2023-05-29T10:31:48;494.93;;;323.67;;
8407;SDS011;4241;48.452;9.216;2023-05-29T10:34:25;495.77;;;325.23;;
8407;SDS011;4241;48.452;9.216;2023-05-29T10:37:00;494.90;;;323.30;;
8407;SDS011;4241;48.452;9.216;2023-05-29T10:39:31;495.47;;;325.77;;
8407;SDS011;4241;48.452;9.216;2023-05-29T10:41:59;497.40;;;330.70;;
8407;SDS011;4241;48.452;9.216;2023-05-29T10:47:11;495.13;;;321.83;;
8407;SDS011;4241;48.452;9.216;2023-05-29T10:49:39;493.87;;;322.20;;
8407;SDS011;4241;48.452;9.216;2023-05-29T10:52:18;495.60;;;324.63;;
8407;SDS011;4241;48.452;9.216;2023-05-29T10:54:52;495.87;;;328.43;;
8407;SDS011;4241;48.452;9.216;2023-05-29T10:57:20;500.67;;;334.67;;
8407;SDS011;4241;48.452;9.216;2023-05-29T10:59:58;497.27;;;332.57;;
8407;SDS011;4241;48.452;9.216;2023-05-29T11:02:26;498.10;;;337.83;;
8407;SDS011;4241;48.452;9.216;2023-05-29T11:07:51;498.13;;;337.03;;
8407;SDS011;4241;48.452;9.216;2023-05-29T11:13:07;498.00;;;331.63;;
8407;SDS011;4241;48.452;9.216;2023-05-29T11:15:35;497.47;;;328.73;;
8407;SDS011;4241;48.452;9.216;2023-05-29T11:18:05;495.27;;;325.57;;
8407;SDS011;4241;48.452;9.216;2023-05-29T11:20:36;497.77;;;335.80;;
8407;SDS011;4241;48.452;9.216;2023-05-29T11:23:08;497.10;;;331.07;;
8407;SDS011;4241;48.452;9.216;2023-05-29T11:25:37;498.83;;;333.37;;
8407;SDS011;4241;48.452;9.216;2023-05-29T11:28:04;496.37;;;333.37;;
8407;SDS011;4241;48.452;9.216;2023-05-29T11:30:43;497.00;;;333.63;;
8407;SDS011;4241;48.452;9.216;2023-05-29T11:33:19;496.27;;;332.60;;
8407;SDS011;4241;48.452;9.216;2023-05-29T11:35:53;498.73;;;334.90;;
8407;SDS011;4241;48.452;9.216;2023-05-29T11:38:22;497.73;;;338.63;;
8407;SDS011;4241;48.452;9.216;2023-05-29T11:40:49;497.77;;;338.57;;
8407;SDS011;4241;48.452;9.216;2023-05-29T11:43:16;497.63;;;339.63;;
8407;SDS011;4241;48.452;9.216;2023-05-29T11:45:44;498.93;;;345.63;;
8407;SDS011;4241;48.452;9.216;2023-05-29T11:48:11;501.80;;;349.03;;
8407;SDS011;4241;48.452;9.216;2023-05-29T11:50:38;498.43;;;344.73;;
8407;SDS011;4241;48.452;9.216;2023-05-29T11:53:05;499.27;;;346.67;;
8407;SDS011;4241;48.452;9.216;2023-05-29T11:55:33;503.70;;;352.03;;
8407;SDS011;4241;48.452;9.216;2023-05-29T11:58:01;500.27;;;351.00;;
8407;SDS011;4241;48.452;9.216;2023-05-29T12:00:30;501.57;;;350.83;;
8407;SDS011;4241;48.452;9.216;2023-05-29T12:02:59;499.00;;;347.97;;
8407;SDS011;4241;48.452;9.216;2023-05-29T12:05:28;503.97;;;353.07;;
8407;SDS011;4241;48.452;9.216;2023-05-29T12:07:56;497.70;;;345.40;;
8407;SDS011;4241;48.452;9.216;2023-05-29T12:10:26;500.37;;;348.50;;
8407;SDS011;4241;48.452;9.216;2023-05-29T12:12:53;501.37;;;354.23;;
8407;SDS011;4241;48.452;9.216;2023-05-29T12:15:21;505.37;;;359.67;;
8407;SDS011;4241;48.452;9.216;2023-05-29T12:17:48;501.20;;;357.33;;
8407;SDS011;4241;48.452;9.216;2023-05-29T12:20:17;502.37;;;356.43;;
8407;SDS011;4241;48.452;9.216;2023-05-29T12:22:45;501.33;;;356.00;;
8407;SDS011;4241;48.452;9.216;2023-05-29T12:25:13;502.50;;;359.17;;
8407;SDS011;4241;48.452;9.216;2023-05-29T12:27:41;500.67;;;356.20;;
8407;SDS011;4241;48.452;9.216;2023-05-29T12:30:11;503.13;;;360.60;;
8407;SDS011;4241;48.452;9.216;2023-05-29T12:32:41;500.80;;;358.80;;
8407;SDS011;4241;48.452;9.216;2023-05-29T12:35:12;503.10;;;363.77;;
8407;SDS011;4241;48.452;9.216;2023-05-29T12:37:45;504.60;;;370.17;;
8407;SDS011;4241;48.452;9.216;2023-05-29T12:40:17;504.47;;;365.57;;
8407;SDS011;4241;48.452;9.216;2023-05-29T12:42:45;503.30;;;368.03;;
8407;SDS011;4241;48.452;9.216;2023-05-29T12:45:12;504.13;;;368.60;;
8407;SDS011;4241;48.452;9.216;2023-05-29T12:50:22;504.57;;;367.27;;
8407;SDS011;4241;48.452;9.216;2023-05-29T12:52:55;502.57;;;361.83;;
8407;SDS011;4241;48.452;9.216;2023-05-29T12:55:23;507.50;;;372.43;;
8407;SDS011;4241;48.452;9.216;2023-05-29T12:57:50;500.63;;;358.67;;
8407;SDS011;4241;48.452;9.216;2023-05-29T13:00:18;502.33;;;363.03;;
8407;SDS011;4241;48.452;9.216;2023-05-29T13:02:46;502.07;;;363.70;;
8407;SDS011;4241;48.452;9.216;2023-05-29T13:05:14;505.93;;;369.13;;
8407;SDS011;4241;48.452;9.216;2023-05-29T13:07:43;502.33;;;357.40;;
8407;SDS011;4241;48.452;9.216;2023-05-29T13:10:13;500.20;;;354.43;;
8407;SDS011;4241;48.452;9.216;2023-05-29T13:12:40;501.17;;;353.67;;
8407;SDS011;4241;48.452;9.216;2023-05-29T13:15:07;501.77;;;351.93;;
8407;SDS011;4241;48.452;9.216;2023-05-29T13:17:36;501.70;;;352.13;;
8407;SDS011;4241;48.452;9.216;2023-05-29T13:20:06;503.60;;;355.53;;
8407;SDS011;4241;48.452;9.216;2023-05-29T13:22:34;500.00;;;349.93;;
8407;SDS011;4241;48.452;9.216;2023-05-29T13:25:01;499.40;;;348.60;;
8407;SDS011;4241;48.452;9.216;2023-05-29T13:27:33;498.63;;;347.87;;
8407;SDS011;4241;48.452;9.216;2023-05-29T13:30:01;502.63;;;350.33;;
8407;SDS011;4241;48.452;9.216;2023-05-29T13:32:28;500.93;;;356.13;;
8407;SDS011;4241;48.452;9.216;2023-05-29T13:34:55;499.80;;;348.57;;
8407;SDS011;4241;48.452;9.216;2023-05-29T13:37:22;500.57;;;347.67;;
8407;SDS011;4241;48.452;9.216;2023-05-29T13:39:50;501.60;;;351.77;;
8407;SDS011;4241;48.452;9.216;2023-05-29T13:42:17;500.93;;;348.83;;
8407;SDS011;4241;48.452;9.216;2023-05-29T13:44:46;497.77;;;344.03;;
8407;SDS011;4241;48.452;9.216;2023-05-29T13:47:13;499.60;;;344.60;;
8407;SDS011;4241;48.452;9.216;2023-05-29T13:49:40;499.93;;;344.23;;
8407;SDS011;4241;48.452;9.216;2023-05-29T13:52:08;498.57;;;341.33;;
8407;SDS011;4241;48.452;9.216;2023-05-29T13:54:34;499.10;;;343.77;;
8407;SDS011;4241;48.452;9.216;2023-05-29T13:57:02;499.37;;;344.93;;
8407;SDS011;4241;48.452;9.216;2023-05-29T13:59:29;503.07;;;346.63;;
8407;SDS011;4241;48.452;9.216;2023-05-29T14:01:58;499.33;;;339.87;;
8407;SDS011;4241;48.452;9.216;2023-05-29T14:04:25;496.70;;;333.07;;
8407;SDS011;4241;48.452;9.216;2023-05-29T14:06:52;500.33;;;341.40;;
8407;SDS011;4241;48.452;9.216;2023-05-29T14:09:19;499.03;;;339.57;;
8407;SDS011;4241;48.452;9.216;2023-05-29T14:11:52;499.10;;;343.10;;
8407;SDS011;4241;48.452;9.216;2023-05-29T14:14:19;498.43;;;339.77;;
8407;SDS011;4241;48.452;9.216;2023-05-29T14:16:46;501.20;;;348.13;;
8407;SDS011;4241;48.452;9.216;2023-05-29T14:19:14;502.17;;;351.47;;
8407;SDS011;4241;48.452;9.216;2023-05-29T14:21:41;503.60;;;356.73;;
8407;SDS011;4241;48.452;9.216;2023-05-29T14:24:08;503.40;;;356.97;;
8407;SDS011;4241;48.452;9.216;2023-05-29T14:26:35;501.13;;;353.77;;
8407;SDS011;4241;48.452;9.216;2023-05-29T14:29:01;499.90;;;350.03;;
8407;SDS011;4241;48.452;9.216;2023-05-29T14:31:28;503.60;;;360.33;;
8407;SDS011;4241;48.452;9.216;2023-05-29T14:33:55;499.47;;;348.97;;
8407;SDS011;4241;48.452;9.216;2023-05-29T14:36:24;501.37;;;354.77;;
8407;SDS011;4241;48.452;9.216;2023-05-29T14:38:51;503.60;;;362.37;;
8407;SDS011;4241;48.452;9.216;2023-05-29T14:41:18;501.73;;;358.50;;
8407;SDS011;4241;48.452;9.216;2023-05-29T14:43:44;506.03;;;365.30;;
8407;SDS011;4241;48.452;9.216;2023-05-29T14:46:11;500.60;;;352.90;;
8407;SDS011;4241;48.452;9.216;2023-05-29T14:48:38;500.43;;;359.17;;
8407;SDS011;4241;48.452;9.216;2023-05-29T14:51:05;502.30;;;360.23;;